Time;durP1;ratioP1;P1;durP2;ratioP2;P2;SDS_P1;SDS_P2;PMS_P1;PMS_P2;Temp;Humidity;BMP_temperature;BMP_pressure;BME280_temperature;BME280_humidity;BME280_pressure;Samples;Min_cycle;Max_cycle;Signal;HPM_P1;HPM_P2
2022/04/04 00:01:24;;;;;;;18.40;9.30;;;2.00;99.90;;;;;;5051443;28;20108;-58
2022/04/04 00:03:50;;;;;;;18.30;9.45;;;2.00;99.90;;;;;;5053557;28;20030;-60
2022/04/04 00:06:15;;;;;;;19.60;10.23;;;2.00;99.90;;;;;;5051558;28;20028;-59
2022/04/04 00:08:41;;;;;;;18.80;9.65;;;1.90;99.90;;;;;;5052830;28;20114;-58
2022/04/04 00:11:07;;;;;;;21.88;9.75;;;2.00;99.90;;;;;;5052020;28;20028;-61
2022/04/04 00:13:32;;;;;;;19.35;8.73;;;2.00;99.90;;;;;;5052602;28;20102;-61
2022/04/04 00:15:58;;;;;;;18.30;10.00;;;2.00;99.90;;;;;;5052490;28;20127;-57
2022/04/04 00:18:24;;;;;;;16.20;8.95;;;2.00;99.90;;;;;;5052385;28;20038;-61
2022/04/04 00:20:49;;;;;;;17.90;9.07;;;2.00;99.90;;;;;;5052117;28;20107;-61
2022/04/04 00:23:16;;;;;;;18.70;9.20;;;2.00;99.90;;;;;;5052352;28;20097;-59
2022/04/04 00:25:43;;;;;;;19.05;9.52;;;2.00;99.90;;;;;;5052025;28;20025;-61
2022/04/04 00:28:10;;;;;;;18.35;9.98;;;2.00;99.90;;;;;;5052173;28;20389;-59
2022/04/04 00:30:36;;;;;;;19.80;10.38;;;2.00;99.90;;;;;;5051579;28;20449;-60
2022/04/04 00:33:02;;;;;;;17.38;9.02;;;2.00;99.90;;;;;;5051840;28;20040;-61
2022/04/04 00:35:29;;;;;;;18.77;9.85;;;2.00;99.90;;;;;;5051684;28;20029;-60
2022/04/04 00:37:57;;;;;;;21.95;10.30;;;2.00;99.90;;;;;;5051516;28;20036;-61
2022/04/04 00:40:23;;;;;;;20.17;9.75;;;2.10;99.90;;;;;;5051672;28;20025;-59
2022/04/04 00:42:49;;;;;;;18.73;10.57;;;2.10;99.90;;;;;;5067666;28;20111;-60
2022/04/04 00:45:14;;;;;;;19.13;10.27;;;2.10;99.90;;;;;;5049648;28;20385;-62
2022/04/04 00:47:40;;;;;;;19.45;10.35;;;2.10;99.90;;;;;;5052181;28;20022;-61
2022/04/04 00:50:06;;;;;;;18.50;10.07;;;2.10;99.90;;;;;;5051856;28;20100;-60
2022/04/04 00:52:32;;;;;;;18.98;9.15;;;2.10;99.90;;;;;;5052171;28;20023;-61
2022/04/04 00:54:58;;;;;;;20.80;10.35;;;2.00;99.90;;;;;;5051604;28;20452;-60
2022/04/04 00:57:24;;;;;;;18.52;10.57;;;2.00;99.90;;;;;;5051668;28;20120;-62
2022/04/04 00:59:50;;;;;;;18.55;9.48;;;2.00;99.90;;;;;;5051424;28;20045;-61
2022/04/04 01:02:16;;;;;;;20.33;9.52;;;2.00;99.90;;;;;;5052093;28;20048;-60
2022/04/04 01:04:42;;;;;;;21.42;9.50;;;2.00;99.90;;;;;;5050580;28;20029;-61
2022/04/04 01:07:07;;;;;;;19.73;10.48;;;2.00;99.90;;;;;;5055320;28;20071;-62
2022/04/04 01:09:33;;;;;;;18.90;9.68;;;2.00;99.90;;;;;;5055849;28;20021;-60
2022/04/04 01:12:12;;;;;;;17.45;9.27;;;2.00;99.90;;;;;;5054800;28;20025;-62
2022/04/04 01:14:46;;;;;;;19.55;9.82;;;2.00;99.90;;;;;;5055049;28;20672;-63
2022/04/04 01:17:13;;;;;;;18.42;9.77;;;1.90;99.90;;;;;;5054869;28;20033;-61
2022/04/04 01:19:39;;;;;;;21.05;9.50;;;2.00;99.90;;;;;;5054291;28;20460;-61
2022/04/04 01:22:10;;;;;;;18.95;9.73;;;2.00;99.90;;;;;;5055151;28;20082;-62
2022/04/04 01:24:39;;;;;;;19.20;9.35;;;1.90;99.90;;;;;;5054775;28;20399;-63
2022/04/04 01:27:07;;;;;;;19.85;9.40;;;2.00;99.90;;;;;;5055113;28;20066;-62
2022/04/04 01:29:34;;;;;;;19.20;9.47;;;1.90;99.90;;;;;;5054970;28;20029;-61
2022/04/04 01:32:00;;;;;;;19.40;9.80;;;2.00;99.90;;;;;;5055199;28;20275;-62
2022/04/04 01:34:26;;;;;;;19.33;9.95;;;2.00;99.90;;;;;;5054594;28;20374;-65
2022/04/04 01:36:52;;;;;;;17.63;8.85;;;2.00;99.90;;;;;;5054692;28;20104;-61
2022/04/04 01:39:18;;;;;;;17.60;9.43;;;2.00;99.90;;;;;;5054279;28;20118;-62
2022/04/04 01:41:44;;;;;;;20.35;9.85;;;2.00;99.90;;;;;;5054984;28;20021;-62
2022/04/04 01:44:10;;;;;;;19.35;9.82;;;2.00;99.90;;;;;;5054594;28;20052;-61
2022/04/04 01:46:36;;;;;;;18.25;9.27;;;2.00;99.90;;;;;;5054829;28;20493;-60
2022/04/04 01:49:04;;;;;;;17.35;9.07;;;2.00;99.90;;;;;;5053210;28;20024;-59
2022/04/04 01:51:32;;;;;;;18.25;9.88;;;2.00;99.90;;;;;;5054800;28;20055;-62
2022/04/04 01:53:58;;;;;;;19.63;10.02;;;2.00;99.90;;;;;;5054384;28;20025;-62
2022/04/04 01:56:24;;;;;;;19.73;9.73;;;2.00;99.90;;;;;;5054331;28;20028;-60
2022/04/04 01:58:50;;;;;;;17.60;9.13;;;2.00;99.90;;;;;;5053694;28;20024;-61
2022/04/04 02:01:22;;;;;;;18.50;9.40;;;2.00;99.90;;;;;;5053053;28;20112;-63
2022/04/04 02:03:49;;;;;;;19.77;9.80;;;2.00;99.90;;;;;;5054052;28;20037;-62
2022/04/04 02:06:15;;;;;;;19.03;8.97;;;2.00;99.90;;;;;;5053625;28;20029;-61
2022/04/04 02:08:44;;;;;;;18.02;9.52;;;2.10;99.90;;;;;;5054238;28;20033;-62
2022/04/04 02:11:11;;;;;;;18.20;8.93;;;2.10;99.90;;;;;;5054101;28;20021;-62
2022/04/04 02:13:37;;;;;;;19.05;9.48;;;2.10;99.90;;;;;;5054428;28;20029;-60
2022/04/04 02:16:03;;;;;;;19.02;9.27;;;2.10;99.90;;;;;;5054026;28;20595;-59
2022/04/04 02:18:34;;;;;;;17.30;9.10;;;2.00;99.90;;;;;;5053197;28;20029;-61
2022/04/04 02:21:00;;;;;;;22.38;10.73;;;2.00;99.90;;;;;;5053668;28;20013;-61
2022/04/04 02:23:25;;;;;;;19.25;10.15;;;2.00;99.90;;;;;;5053956;28;20024;-61
2022/04/04 02:25:55;;;;;;;19.15;9.80;;;2.00;99.90;;;;;;5053740;28;20027;-58
2022/04/04 02:28:21;;;;;;;20.85;10.10;;;2.00;99.90;;;;;;5053795;28;20079;-59
2022/04/04 02:30:49;;;;;;;19.95;10.15;;;2.00;99.90;;;;;;5052279;28;20500;-62
2022/04/04 02:33:15;;;;;;;21.08;9.75;;;2.00;99.90;;;;;;5053728;28;20035;-62
2022/04/04 02:35:41;;;;;;;18.60;9.73;;;1.90;99.90;;;;;;5053369;28;20087;-62
2022/04/04 02:38:07;;;;;;;18.35;9.68;;;1.90;99.90;;;;;;5053608;28;20024;-62
2022/04/04 02:40:34;;;;;;;18.98;9.68;;;2.00;99.90;;;;;;5053512;28;20108;-60
2022/04/04 02:43:00;;;;;;;18.88;8.98;;;1.90;99.90;;;;;;5053909;28;20025;-62
2022/04/04 02:45:26;;;;;;;20.08;10.18;;;1.90;99.90;;;;;;5053405;28;20512;-61
2022/04/04 02:47:52;;;;;;;19.63;10.63;;;1.90;99.90;;;;;;5053453;28;20028;-61
2022/04/04 02:50:17;;;;;;;20.95;11.15;;;1.90;99.90;;;;;;5052409;28;20029;-61
2022/04/04 02:52:44;;;;;;;18.88;10.15;;;1.90;99.90;;;;;;5053619;28;20032;-60
2022/04/04 02:57:55;;;;;;;20.38;10.80;;;2.00;99.90;;;;;;5052975;28;20495;-61
2022/04/04 03:00:23;;;;;;;20.30;10.57;;;2.00;99.90;;;;;;5052648;28;20053;-61
2022/04/04 03:02:50;;;;;;;20.83;11.48;;;2.10;99.90;;;;;;5053351;28;20397;-58
2022/04/04 03:05:15;;;;;;;28.88;11.63;;;2.10;99.90;;;;;;5051619;28;20021;-61
2022/04/04 03:07:42;;;;;;;20.52;10.07;;;2.00;99.90;;;;;;5053122;28;20035;-61
2022/04/04 03:10:09;;;;;;;20.65;10.93;;;2.10;99.90;;;;;;5052634;28;20108;-61
2022/04/04 03:12:43;;;;;;;20.83;11.40;;;2.00;99.90;;;;;;5051934;28;20020;-61
2022/04/04 03:15:11;;;;;;;22.73;12.13;;;2.00;99.90;;;;;;5051406;28;20032;-63
2022/04/04 03:17:39;;;;;;;19.67;10.93;;;2.00;99.90;;;;;;5052785;28;20033;-61
2022/04/04 03:20:09;;;;;;;21.50;10.50;;;2.00;99.90;;;;;;5052968;28;20021;-62
2022/04/04 03:22:53;;;;;;;20.83;11.15;;;2.00;99.90;;;;;;5053042;28;20028;-62
2022/04/04 03:25:19;;;;;;;20.33;11.23;;;2.00;99.90;;;;;;5052611;28;20096;-62
2022/04/04 03:27:46;;;;;;;23.00;11.30;;;2.10;99.90;;;;;;5052595;28;20042;-60
2022/04/04 03:30:18;;;;;;;19.80;10.68;;;2.10;99.90;;;;;;5052423;28;20029;-62
2022/04/04 03:32:45;;;;;;;21.45;11.90;;;2.00;99.90;;;;;;5051556;28;20025;-62
2022/04/04 03:35:14;;;;;;;22.53;12.50;;;2.00;99.90;;;;;;5052594;28;20039;-61
2022/04/04 03:37:41;;;;;;;25.02;11.73;;;2.10;99.90;;;;;;5052346;28;20040;-62
2022/04/04 03:40:09;;;;;;;20.58;10.18;;;2.10;99.90;;;;;;5052075;28;20029;-62
2022/04/04 03:42:37;;;;;;;23.65;12.48;;;2.10;99.90;;;;;;5052704;28;20086;-62
2022/04/04 03:45:04;;;;;;;24.13;13.40;;;2.10;99.90;;;;;;5050822;28;20025;-60
2022/04/04 03:47:30;;;;;;;22.92;12.25;;;2.10;99.90;;;;;;5052401;28;20036;-63
2022/04/04 03:49:56;;;;;;;27.05;14.25;;;2.20;99.90;;;;;;5051927;28;20044;-62
2022/04/04 03:52:22;;;;;;;23.45;12.55;;;2.20;99.90;;;;;;5052019;28;20025;-62
2022/04/04 03:54:48;;;;;;;22.85;11.50;;;2.20;99.90;;;;;;5052094;28;20069;-62
2022/04/04 03:57:14;;;;;;;26.60;13.73;;;2.30;99.90;;;;;;5052059;28;20104;-63
2022/04/04 03:59:39;;;;;;;23.00;11.77;;;2.30;99.90;;;;;;5052028;28;20110;-62
2022/04/04 04:02:05;;;;;;;21.98;12.50;;;2.20;99.90;;;;;;5052260;28;20029;-61
2022/04/04 04:04:30;;;;;;;21.80;11.73;;;2.30;99.90;;;;;;5051935;28;20033;-60
2022/04/04 04:06:56;;;;;;;21.30;12.50;;;2.30;99.90;;;;;;5051144;28;20481;-61
2022/04/04 04:09:22;;;;;;;26.92;12.13;;;2.30;99.90;;;;;;5051958;28;20025;-61
2022/04/04 04:11:48;;;;;;;22.90;11.00;;;2.40;99.90;;;;;;5052082;28;20032;-62
2022/04/04 04:14:14;;;;;;;20.08;11.20;;;2.40;99.90;;;;;;5051906;28;20025;-62
2022/04/04 04:16:40;;;;;;;20.80;11.38;;;2.40;99.90;;;;;;5052053;28;20485;-62
2022/04/04 04:20:19;;;;;;;18.70;10.18;;;2.40;99.90;;;;;;5051759;28;20489;-62
2022/04/04 04:21:51;;;;;;;18.13;9.98;;;2.40;99.90;;;;;;5052053;28;20055;-63
2022/04/04 04:24:17;;;;;;;19.48;10.48;;;2.40;99.90;;;;;;5051694;28;20021;-62
2022/04/04 04:26:43;;;;;;;20.23;11.38;;;2.40;99.90;;;;;;5052198;28;20021;-62
2022/04/04 04:29:08;;;;;;;21.85;10.90;;;2.40;99.90;;;;;;5050383;28;20022;-61
2022/04/04 04:31:34;;;;;;;19.40;10.93;;;2.50;99.90;;;;;;5052146;28;20171;-62
2022/04/04 04:34:00;;;;;;;20.70;10.45;;;2.50;99.90;;;;;;5051967;28;20032;-62
2022/04/04 04:36:26;;;;;;;20.38;10.05;;;2.50;99.90;;;;;;5051317;28;20506;-63
2022/04/04 04:38:52;;;;;;;22.98;10.85;;;2.50;99.90;;;;;;5050239;28;20029;-63
2022/04/04 04:41:18;;;;;;;19.52;10.68;;;2.60;99.90;;;;;;5052763;28;20467;-63
2022/04/04 04:43:43;;;;;;;17.88;9.20;;;2.60;99.90;;;;;;5055453;28;20052;-62
2022/04/04 04:46:09;;;;;;;17.80;9.80;;;2.70;99.90;;;;;;5055307;28;20028;-61
2022/04/04 04:48:35;;;;;;;21.15;10.18;;;2.70;99.90;;;;;;5054354;28;20112;-62
2022/04/04 04:51:00;;;;;;;20.25;10.88;;;2.70;99.90;;;;;;5054972;28;20486;-62
2022/04/04 04:53:26;;;;;;;19.63;10.35;;;2.80;99.90;;;;;;5054079;28;20021;-63
2022/04/04 04:55:51;;;;;;;20.30;10.52;;;2.80;99.90;;;;;;5055351;28;20055;-62
2022/04/04 04:58:17;;;;;;;20.75;10.30;;;2.80;99.90;;;;;;5054999;28;20040;-63
2022/04/04 05:00:43;;;;;;;19.23;9.55;;;2.80;99.90;;;;;;5053260;28;20380;-62
2022/04/04 05:03:24;;;;;;;19.70;10.35;;;2.80;99.90;;;;;;5055303;28;20078;-63
2022/04/04 05:05:50;;;;;;;21.55;10.68;;;2.90;99.90;;;;;;5054646;28;20104;-61
2022/04/04 05:08:15;;;;;;;19.35;10.02;;;2.90;99.90;;;;;;5053302;28;20524;-60
2022/04/04 05:10:41;;;;;;;18.90;9.85;;;2.90;99.90;;;;;;5053195;28;20515;-64
2022/04/04 05:13:07;;;;;;;20.05;9.60;;;2.90;99.90;;;;;;5055194;28;20025;-63
2022/04/04 05:15:32;;;;;;;20.77;10.32;;;2.90;99.90;;;;;;5054620;28;20036;-63
2022/04/04 05:17:58;;;;;;;20.98;10.07;;;3.00;99.90;;;;;;5053640;28;20025;-63
2022/04/04 05:20:24;;;;;;;18.35;9.73;;;3.00;99.90;;;;;;5052988;28;20025;-62
2022/04/04 05:22:49;;;;;;;18.52;9.90;;;3.10;99.90;;;;;;5055038;28;20028;-61
2022/04/04 05:25:15;;;;;;;18.25;9.40;;;3.10;99.90;;;;;;5054487;28;20393;-63
2022/04/04 05:27:41;;;;;;;18.75;8.55;;;3.10;99.90;;;;;;5053459;28;20079;-64
2022/04/04 05:30:10;;;;;;;19.00;10.35;;;3.10;99.90;;;;;;5054290;28;20663;-61
2022/04/04 05:32:36;;;;;;;19.27;8.48;;;3.20;99.90;;;;;;5053450;28;20021;-63
2022/04/04 05:35:05;;;;;;;19.70;9.57;;;3.20;99.90;;;;;;5054256;28;20033;-62
2022/04/04 05:37:32;;;;;;;18.38;9.98;;;3.20;99.90;;;;;;5054275;28;20492;-62
2022/04/04 05:39:57;;;;;;;19.27;9.13;;;3.20;99.90;;;;;;5054195;28;20021;-63
2022/04/04 05:42:23;;;;;;;19.20;8.75;;;3.30;99.90;;;;;;5054828;28;20078;-60
2022/04/04 05:44:48;;;;;;;18.92;8.55;;;3.30;99.90;;;;;;5053959;28;20381;-63
2022/04/04 05:47:17;;;;;;;17.45;9.05;;;3.30;99.90;;;;;;5055333;28;20151;-63
2022/04/04 05:49:43;;;;;;;21.23;10.20;;;3.40;99.90;;;;;;5054077;28;20028;-64
2022/04/04 05:52:09;;;;;;;17.73;8.98;;;3.40;99.90;;;;;;5051971;28;20032;-62
2022/04/04 05:54:53;;;;;;;18.05;9.20;;;3.40;99.90;;;;;;5054479;28;20021;-61
2022/04/04 05:57:22;;;;;;;20.52;10.07;;;3.40;99.90;;;;;;5069297;28;20033;-61
2022/04/04 05:59:48;;;;;;;18.70;9.80;;;3.50;99.90;;;;;;5053411;28;20028;-58
2022/04/04 06:02:13;;;;;;;18.10;8.80;;;3.50;99.90;;;;;;5053817;28;20025;-63
2022/04/04 06:04:39;;;;;;;18.08;9.07;;;3.50;99.90;;;;;;5053563;28;20492;-62
2022/04/04 06:07:05;;;;;;;20.50;9.23;;;3.60;99.90;;;;;;5053428;28;20106;-62
2022/04/04 06:09:30;;;;;;;19.13;9.30;;;3.60;99.90;;;;;;5053223;28;20362;-63
2022/04/04 06:11:56;;;;;;;17.85;10.15;;;3.60;99.90;;;;;;5053611;28;20517;-62
2022/04/04 06:14:22;;;;;;;18.38;9.43;;;3.70;99.90;;;;;;5053130;28;20473;-62
2022/04/04 06:16:47;;;;;;;19.02;9.80;;;3.70;99.90;;;;;;5053687;28;20033;-63
2022/04/04 06:19:13;;;;;;;19.63;9.73;;;3.80;99.90;;;;;;5068845;28;20045;-63
2022/04/04 06:21:39;;;;;;;18.58;9.07;;;3.70;99.90;;;;;;5053802;28;20478;-64
2022/04/04 06:24:06;;;;;;;19.60;9.57;;;3.80;99.90;;;;;;5053537;28;20437;-62
2022/04/04 06:26:31;;;;;;;18.20;9.52;;;3.70;99.90;;;;;;5053693;28;20033;-63
2022/04/04 06:28:57;;;;;;;18.08;9.10;;;3.70;99.90;;;;;;5053355;28;20048;-63
2022/04/04 06:31:22;;;;;;;18.88;10.18;;;3.80;99.90;;;;;;5054163;28;20473;-62
2022/04/04 06:33:48;;;;;;;20.00;10.98;;;3.80;99.90;;;;;;5053635;28;20091;-63
2022/04/04 06:36:14;;;;;;;21.25;9.18;;;3.80;99.90;;;;;;5053378;28;20079;-63
2022/04/04 06:38:40;;;;;;;18.92;9.70;;;3.80;99.90;;;;;;5052003;28;20043;-63
2022/04/04 06:41:05;;;;;;;23.88;11.02;;;3.80;99.90;;;;;;5052717;28;20021;-62
2022/04/04 06:43:31;;;;;;;21.85;10.10;;;3.80;99.90;;;;;;5053770;28;20461;-62
2022/04/04 06:45:57;;;;;;;18.30;9.73;;;3.80;99.90;;;;;;5052325;28;20013;-63
2022/04/04 06:48:23;;;;;;;18.58;9.80;;;3.80;99.90;;;;;;5052828;28;20098;-63
2022/04/04 06:50:49;;;;;;;19.85;10.25;;;3.90;99.90;;;;;;5052700;28;20021;-64
2022/04/04 06:53:15;;;;;;;24.67;10.43;;;3.90;99.90;;;;;;5053534;28;20448;-63
2022/04/04 06:55:42;;;;;;;19.63;9.82;;;4.00;99.90;;;;;;5053074;28;20037;-63
2022/04/04 06:58:07;;;;;;;20.02;11.13;;;4.00;99.90;;;;;;5053227;28;20519;-63
2022/04/04 07:00:35;;;;;;;19.25;9.80;;;4.10;99.90;;;;;;5052677;28;20033;-62
2022/04/04 07:03:01;;;;;;;19.65;10.48;;;4.10;99.90;;;;;;5053297;28;20488;-62
2022/04/04 07:05:27;;;;;;;20.65;10.75;;;4.20;99.90;;;;;;5053304;28;20138;-62
2022/04/04 07:07:53;;;;;;;20.42;9.90;;;4.20;99.90;;;;;;5052998;28;20059;-62
2022/04/04 07:10:20;;;;;;;17.42;9.85;;;4.40;99.90;;;;;;5052941;28;20025;-62
2022/04/04 07:12:45;;;;;;;20.13;9.32;;;4.50;99.90;;;;;;5053081;28;20021;-59
2022/04/04 07:15:11;;;;;;;22.52;10.32;;;4.50;99.90;;;;;;5053213;28;20392;-61
2022/04/04 07:17:38;;;;;;;22.65;10.05;;;4.50;99.90;;;;;;5052936;28;20103;-62
2022/04/04 07:20:05;;;;;;;18.80;9.35;;;4.60;99.90;;;;;;5053565;28;20032;-63
2022/04/04 07:22:36;;;;;;;18.95;10.52;;;4.60;99.90;;;;;;5067982;28;20025;-64
2022/04/04 07:25:07;;;;;;;21.55;10.02;;;4.80;99.90;;;;;;5052844;28;20025;-61
2022/04/04 07:27:33;;;;;;;24.08;10.07;;;4.90;99.90;;;;;;5052959;28;20543;-62
2022/04/04 07:29:59;;;;;;;22.40;10.93;;;5.00;99.90;;;;;;5052324;28;20036;-62
2022/04/04 07:32:25;;;;;;;23.80;11.68;;;5.00;99.90;;;;;;5067811;28;20021;-62
2022/04/04 07:34:51;;;;;;;22.83;10.55;;;5.10;99.90;;;;;;5052331;28;20028;-62
2022/04/04 07:37:17;;;;;;;22.35;11.55;;;5.20;99.90;;;;;;5052818;28;20029;-62
2022/04/04 07:39:42;;;;;;;20.90;10.60;;;5.30;99.90;;;;;;5052118;28;20100;-64
2022/04/04 07:42:08;;;;;;;21.85;10.90;;;5.40;99.90;;;;;;5052637;28;20025;-64
2022/04/04 07:44:34;;;;;;;19.50;10.45;;;5.40;99.90;;;;;;5051087;28;20025;-62
2022/04/04 07:47:00;;;;;;;22.80;10.10;;;5.40;99.90;;;;;;5052559;28;20021;-61
2022/04/04 07:49:26;;;;;;;20.27;10.98;;;5.40;99.90;;;;;;5052317;28;20043;-62
2022/04/04 07:51:52;;;;;;;20.20;10.55;;;5.50;99.90;;;;;;5051418;28;20028;-62
2022/04/04 07:54:18;;;;;;;19.50;10.27;;;5.50;99.90;;;;;;5052484;28;20028;-63
2022/04/04 07:56:44;;;;;;;21.48;10.82;;;5.60;99.90;;;;;;5051071;28;20025;-64
2022/04/04 07:59:11;;;;;;;22.48;10.43;;;5.60;99.90;;;;;;5051718;28;20083;-64
2022/04/04 08:01:37;;;;;;;18.88;9.43;;;5.50;99.90;;;;;;5052564;28;20037;-62
2022/04/04 08:04:02;;;;;;;22.38;12.55;;;5.40;99.90;;;;;;5052134;28;20013;-63
2022/04/04 08:06:28;;;;;;;18.73;9.05;;;5.40;99.90;;;;;;5052251;28;20095;-64
2022/04/04 08:08:53;;;;;;;22.77;10.90;;;5.50;99.90;;;;;;5069619;28;20555;-63
2022/04/04 08:11:19;;;;;;;20.45;9.30;;;5.60;99.90;;;;;;5070191;28;20031;-62
2022/04/04 08:13:45;;;;;;;19.98;10.13;;;5.70;99.90;;;;;;5070546;28;20055;-62
2022/04/04 08:16:11;;;;;;;20.25;10.63;;;5.70;99.90;;;;;;5070780;28;20035;-65
2022/04/04 08:18:38;;;;;;;18.92;10.23;;;5.80;99.90;;;;;;5074244;28;20076;-63
2022/04/04 08:21:03;;;;;;;20.00;9.85;;;6.00;99.90;;;;;;5074435;28;20020;-61
2022/04/04 08:23:29;;;;;;;20.33;9.90;;;5.90;99.90;;;;;;5076535;28;20021;-60
2022/04/04 08:25:59;;;;;;;20.98;10.15;;;5.90;99.90;;;;;;5075672;28;20107;-64
2022/04/04 08:28:27;;;;;;;20.02;10.07;;;5.90;99.90;;;;;;5074580;28;20025;-64
2022/04/04 08:30:53;;;;;;;18.58;9.73;;;5.90;99.90;;;;;;5075373;28;20113;-64
2022/04/04 08:33:19;;;;;;;22.13;10.07;;;6.00;99.90;;;;;;5076063;28;20111;-54
2022/04/04 08:35:45;;;;;;;19.35;10.48;;;6.10;99.90;;;;;;5075765;28;20025;-64
2022/04/04 08:38:12;;;;;;;18.48;9.65;;;6.20;99.90;;;;;;5075592;28;20104;-54
2022/04/04 08:40:38;;;;;;;18.52;9.88;;;6.20;99.90;;;;;;5075208;28;20044;-63
2022/04/04 08:43:10;;;;;;;17.05;9.43;;;6.10;99.90;;;;;;5074431;28;20381;-59
2022/04/04 08:45:38;;;;;;;20.13;9.95;;;6.10;99.90;;;;;;5075165;28;20016;-62
2022/04/04 08:48:06;;;;;;;24.10;11.40;;;6.20;99.90;;;;;;5074166;28;20029;-64
2022/04/04 08:50:32;;;;;;;22.52;9.02;;;6.10;99.90;;;;;;5075245;28;20029;-66
2022/04/04 08:53:00;;;;;;;22.38;11.75;;;6.10;99.90;;;;;;5075414;28;20107;-64
2022/04/04 08:55:25;;;;;;;18.98;9.93;;;6.20;99.90;;;;;;5074598;28;20510;-61
2022/04/04 08:57:52;;;;;;;20.13;10.73;;;;;;;;;;5074632;28;20028;-60
2022/04/04 09:00:18;;;;;;;18.55;9.48;;;6.30;99.90;;;;;;5075118;28;20108;-64
2022/04/04 09:03:04;;;;;;;19.73;10.40;;;6.30;99.90;;;;;;5075879;28;20075;-64
2022/04/04 09:05:52;;;;;;;19.23;9.93;;;6.20;99.90;;;;;;5074973;28;20028;-60
2022/04/04 09:08:20;;;;;;;18.42;9.02;;;6.20;99.90;;;;;;5074468;28;20091;-59
2022/04/04 09:10:46;;;;;;;20.27;10.90;;;6.10;99.90;;;;;;5075240;28;20035;-64
2022/04/04 09:13:17;;;;;;;27.80;10.30;;;6.10;99.90;;;;;;5075635;28;20035;-63
2022/04/04 09:15:54;;;;;;;19.88;11.73;;;5.90;99.90;;;;;;5075433;28;20077;-67
2022/04/04 09:18:40;;;;;;;18.10;11.00;;;5.70;99.90;;;;;;5076952;28;20032;-65
2022/04/04 09:21:10;;;;;;;22.63;13.15;;;5.50;99.90;;;;;;5079137;28;20029;-63
2022/04/04 09:23:50;;;;;;;20.55;11.00;;;5.40;99.90;;;;;;5079158;28;20025;-65
2022/04/04 09:26:29;;;;;;;21.38;11.32;;;5.30;99.90;;;;;;5079091;28;20025;-63
2022/04/04 09:28:59;;;;;;;24.60;14.68;;;5.30;99.90;;;;;;5075436;28;20457;-64
2022/04/04 09:31:25;;;;;;;22.83;15.00;;;5.10;99.90;;;;;;5079042;28;20034;-64
2022/04/04 09:33:52;;;;;;;23.58;15.88;;;5.30;99.90;;;;;;5077792;28;20028;-61
2022/04/04 09:36:17;;;;;;;23.15;19.67;;;5.20;99.90;;;;;;5075133;28;20024;-61
2022/04/04 09:38:53;;;;;;;24.17;19.92;;;5.00;99.90;;;;;;5074518;28;20445;-59
2022/04/04 09:41:24;;;;;;;25.00;22.38;;;4.90;99.90;;;;;;5074873;28;20017;-61
2022/04/04 09:43:58;;;;;;;34.42;31.25;;;4.70;99.90;;;;;;5074420;28;20070;-58
2022/04/04 09:46:30;;;;;;;36.92;33.45;;;4.60;99.90;;;;;;5074346;28;20021;-60
2022/04/04 09:49:10;;;;;;;36.90;33.45;;;4.60;99.90;;;;;;5074353;28;20033;-58
2022/04/04 09:51:39;;;;;;;36.92;33.38;;;4.60;99.90;;;;;;5073602;28;20028;-58
2022/04/04 09:54:07;;;;;;;38.40;34.83;;;4.60;99.90;;;;;;5073930;28;20024;-59
2022/04/04 09:56:33;;;;;;;41.72;37.95;;;4.70;99.90;;;;;;5074371;28;20528;-60
2022/04/04 09:59:00;;;;;;;39.67;36.08;;;4.80;99.90;;;;;;5074138;28;20037;-57
2022/04/04 10:01:27;;;;;;;38.65;35.05;;;4.80;99.90;;;;;;5074062;28;20016;-59
2022/04/04 10:03:54;;;;;;;44.13;39.38;;;4.80;99.90;;;;;;5072952;28;20485;-60
2022/04/04 10:06:21;;;;;;;29.65;26.80;;;4.90;99.90;;;;;;5073810;28;20020;-58
2022/04/04 10:08:54;;;;;;;29.00;24.42;;;4.90;99.90;;;;;;5073873;28;20112;-53
2022/04/04 10:11:21;;;;;;;24.00;21.42;;;5.00;99.90;;;;;;5074027;28;20032;-61
2022/04/04 10:13:48;;;;;;;23.02;20.10;;;4.90;99.90;;;;;;5072921;28;20047;-59
2022/04/04 10:16:15;;;;;;;25.55;19.58;;;5.00;99.90;;;;;;5073776;28;20033;-60
2022/04/04 10:18:45;;;;;;;24.10;19.50;;;5.00;99.90;;;;;;5073499;28;20043;-60
2022/04/04 10:21:11;;;;;;;23.02;20.13;;;5.10;99.90;;;;;;5069042;28;20070;-60
2022/04/04 10:23:39;;;;;;;23.00;18.60;;;5.10;99.90;;;;;;5073203;28;20023;-59
2022/04/04 10:26:09;;;;;;;21.57;18.10;;;5.10;99.90;;;;;;5073751;28;20013;-60
2022/04/04 10:28:37;;;;;;;24.45;19.50;;;5.10;99.90;;;;;;5073811;28;20624;-58
2022/04/04 10:31:28;;;;;;;22.17;18.45;;;5.10;99.90;;;;;;5074181;28;20024;-62
2022/04/04 10:34:09;;;;;;;30.98;22.17;;;5.00;99.90;;;;;;5072559;28;20047;-58
2022/04/04 10:36:34;;;;;;;26.48;23.02;;;5.00;99.90;;;;;;5073943;28;20027;-60
2022/04/04 10:39:00;;;;;;;26.38;23.45;;;4.90;99.90;;;;;;5072595;28;20107;-61
2022/04/04 10:41:30;;;;;;;27.63;24.60;;;5.00;99.90;;;;;;5074246;28;20387;-60
2022/04/04 10:43:57;;;;;;;30.60;27.40;;;4.90;99.90;;;;;;5073131;28;20448;-59
2022/04/04 10:46:27;;;;;;;32.75;29.25;;;4.90;99.90;;;;;;5074010;28;20020;-60
2022/04/04 10:49:00;;;;;;;34.50;31.23;;;4.80;99.90;;;;;;5073481;28;20472;-61
2022/04/04 10:51:26;;;;;;;40.83;36.65;;;4.70;99.90;;;;;;5073952;28;20024;-62
2022/04/04 10:54:00;;;;;;;43.15;38.95;;;4.70;99.90;;;;;;5073868;28;20021;-62
2022/04/04 10:56:30;;;;;;;29.55;26.38;;;4.60;99.90;;;;;;5074239;28;20024;-61
2022/04/04 10:59:15;;;;;;;37.17;33.40;;;4.60;99.90;;;;;;5072483;28;20119;-62
2022/04/04 11:01:45;;;;;;;35.72;32.38;;;4.60;99.90;;;;;;5073768;28;20032;-61
2022/04/04 11:04:31;;;;;;;36.58;33.00;;;4.60;99.90;;;;;;5073612;28;20039;-59
2022/04/04 11:09:51;;;;;;;35.88;32.38;;;4.70;99.90;;;;;;5052828;28;20519;-61
2022/04/04 11:12:18;;;;;;;34.92;31.38;;;4.80;99.90;;;;;;5052688;28;20021;-58
2022/04/04 11:14:47;;;;;;;31.85;28.65;;;4.80;99.90;;;;;;5053389;28;20017;-60
2022/04/04 11:17:17;;;;;;;33.53;29.75;;;4.80;99.90;;;;;;5073603;28;20111;-59
2022/04/04 11:19:49;;;;;;;32.15;26.80;;;4.80;99.90;;;;;;5073105;28;20100;-60
2022/04/04 11:22:25;;;;;;;28.90;25.90;;;4.90;99.90;;;;;;5072591;28;20391;-58
2022/04/04 11:25:03;;;;;;;32.55;29.23;;;4.90;99.90;;;;;;5072717;28;20511;-62
2022/04/04 11:27:36;;;;;;;30.98;27.88;;;4.90;99.90;;;;;;5071742;28;20709;-60
2022/04/04 11:30:13;;;;;;;34.28;31.08;;;4.90;99.90;;;;;;5072842;28;20035;-60
2022/04/04 11:32:40;;;;;;;34.65;31.40;;;4.90;99.90;;;;;;5072654;28;20411;-59
2022/04/04 11:35:25;;;;;;;35.38;32.15;;;4.90;99.90;;;;;;5071492;28;20048;-62
2022/04/04 11:37:53;;;;;;;40.00;36.15;;;4.90;99.90;;;;;;5071571;28;20032;-61
2022/04/04 11:40:23;;;;;;;37.97;34.35;;;4.90;99.90;;;;;;5072619;28;20016;-62
2022/04/04 11:42:51;;;;;;;38.97;35.47;;;4.80;99.90;;;;;;5072523;28;20063;-59
2022/04/04 11:45:22;;;;;;;37.20;33.75;;;4.90;99.90;;;;;;5072352;28;20446;-62
2022/04/04 11:47:49;;;;;;;35.33;31.90;;;4.90;99.90;;;;;;5073663;28;20020;-65
2022/04/04 11:50:14;;;;;;;35.53;32.20;;;4.90;99.90;;;;;;5071780;28;20440;-63
2022/04/04 11:53:05;;;;;;;35.90;32.60;;;4.90;99.90;;;;;;5072310;28;20059;-60
2022/04/04 11:55:33;;;;;;;34.83;31.42;;;4.90;99.90;;;;;;5072212;28;20512;-59
2022/04/04 11:58:04;;;;;;;35.35;32.28;;;4.90;99.90;;;;;;5072631;28;20159;-58
2022/04/04 12:00:31;;;;;;;34.30;30.85;;;4.90;99.90;;;;;;5072115;28;20389;-59
2022/04/04 12:03:02;;;;;;;34.50;31.30;;;4.90;99.90;;;;;;5072152;28;20020;-63
2022/04/04 12:05:29;;;;;;;35.05;31.77;;;4.90;99.90;;;;;;5071113;28;20032;-64
2022/04/04 12:07:55;;;;;;;34.13;30.83;;;4.90;99.90;;;;;;5071460;28;20455;-64
2022/04/04 12:10:32;;;;;;;36.45;33.15;;;4.90;99.90;;;;;;5072744;28;20066;-64
2022/04/04 12:13:05;;;;;;;37.30;33.90;;;4.90;99.90;;;;;;5072595;28;20024;-64
2022/04/04 12:15:33;;;;;;;35.53;32.42;;;4.90;99.90;;;;;;5071754;28;20538;-62
2022/04/04 12:18:00;;;;;;;;;;;4.90;99.90;;;;;;5071585;28;20078;-64
2022/04/04 12:20:31;;;;;;;39.67;35.92;;;5.00;99.90;;;;;;5071628;28;19904;-62
2022/04/04 12:25:41;;;;;;;44.70;40.45;;;4.90;99.90;;;;;;5073549;28;20462;-63
2022/04/04 12:28:07;;;;;;;44.20;40.00;;;4.90;99.90;;;;;;5075407;28;20021;-64
2022/04/04 12:30:36;;;;;;;43.08;39.08;;;4.90;99.90;;;;;;5075509;28;20025;-65
2022/04/04 12:33:15;;;;;;;44.63;40.42;;;4.90;99.90;;;;;;5075348;28;20024;-64
2022/04/04 12:35:43;;;;;;;49.90;45.35;;;4.90;99.90;;;;;;5073985;28;20036;-65
2022/04/04 12:38:10;;;;;;;42.42;38.78;;;4.90;99.90;;;;;;5075562;28;20055;-66
2022/04/04 12:40:38;;;;;;;44.00;40.08;;;4.90;99.90;;;;;;5074820;28;20065;-64
2022/04/04 12:43:09;;;;;;;45.65;41.75;;;5.00;99.90;;;;;;5076857;28;20036;-64
2022/04/04 12:45:46;;;;;;;44.20;40.30;;;4.90;99.90;;;;;;5077887;28;20031;-63
2022/04/04 12:48:12;;;;;;;43.67;39.72;;;5.00;99.90;;;;;;5079082;28;20130;-64
2022/04/04 12:50:42;;;;;;;41.38;37.45;;;5.00;99.90;;;;;;5078467;28;20017;-62
2022/04/04 12:53:10;;;;;;;38.88;35.47;;;5.00;99.90;;;;;;5070141;28;20035;-59